createdAt,value
2023-02-14T00:01:44.066Z,10.77
2023-02-14T00:04:10.698Z,10.45
2023-02-14T00:06:39.256Z,9.65
2023-02-14T00:09:07.598Z,8.95
2023-02-14T00:11:34.168Z,8.60
2023-02-14T00:14:19.119Z,9.55
2023-02-14T00:16:46.198Z,8.50
2023-02-14T00:19:15.301Z,9.55
2023-02-14T00:21:42.219Z,9.52
2023-02-14T00:24:11.928Z,9.85
2023-02-14T00:26:38.894Z,11.35
2023-02-14T00:29:13.513Z,11.45
2023-02-14T00:31:41.611Z,11.52
2023-02-14T00:34:09.041Z,10.98
2023-02-14T00:36:36.791Z,10.43
2023-02-14T00:39:09.285Z,12.50
2023-02-14T00:41:36.218Z,12.65
2023-02-14T00:44:02.975Z,13.65
2023-02-14T00:46:29.670Z,14.40
2023-02-14T00:48:56.779Z,14.32
2023-02-14T00:51:23.937Z,15.15
2023-02-14T00:53:51.467Z,14.68
2023-02-14T00:56:20.285Z,13.75
2023-02-14T01:01:15.625Z,15.30
2023-02-14T01:03:42.570Z,16.55
2023-02-14T01:06:09.672Z,17.95
2023-02-14T01:08:36.200Z,25.20
2023-02-14T01:11:18.205Z,27.42
2023-02-14T01:13:45.784Z,21.63
2023-02-14T01:16:16.019Z,19.58
2023-02-14T01:18:44.092Z,17.27
2023-02-14T01:21:15.166Z,16.00
2023-02-14T01:23:42.775Z,16.30
2023-02-14T01:26:10.719Z,15.93
2023-02-14T01:28:37.823Z,16.50
2023-02-14T01:31:17.116Z,16.60
2023-02-14T01:33:47.099Z,16.25
2023-02-14T01:36:19.077Z,15.63
2023-02-14T01:38:45.985Z,15.10
2023-02-14T01:41:13.278Z,15.18
2023-02-14T01:43:55.954Z,13.73
2023-02-14T01:46:23.424Z,13.18
2023-02-14T01:48:51.076Z,13.40
2023-02-14T01:51:20.145Z,13.52
2023-02-14T01:53:47.785Z,13.40
2023-02-14T01:56:21.168Z,12.90
2023-02-14T01:58:52.803Z,13.38
2023-02-14T02:01:20.067Z,12.77
2023-02-14T02:03:55.989Z,13.18
2023-02-14T02:06:35.662Z,13.80
2023-02-14T02:09:15.119Z,13.05
2023-02-14T02:11:42.848Z,12.38
2023-02-14T02:14:16.008Z,12.43
2023-02-14T02:16:47.820Z,12.18
2023-02-14T02:19:36.549Z,12.68
2023-02-14T02:22:46.857Z,13.57
2023-02-14T02:25:59.180Z,13.48
2023-02-14T02:28:51.710Z,13.88
2023-02-14T02:31:52.425Z,12.10
2023-02-14T02:34:56.233Z,12.95
2023-02-14T02:37:31.580Z,13.20
2023-02-14T02:40:13.167Z,14.30
2023-02-14T02:43:02.674Z,13.57
2023-02-14T02:45:56.952Z,12.85
2023-02-14T02:48:32.189Z,12.18
2023-02-14T02:51:20.669Z,12.77
2023-02-14T02:54:02.919Z,12.82
2023-02-14T02:56:46.948Z,12.55
2023-02-14T02:59:22.081Z,13.20
2023-02-14T03:01:54.885Z,12.80
2023-02-14T03:04:44.905Z,13.00
2023-02-14T03:07:30.935Z,11.88
2023-02-14T03:10:00.890Z,12.70
2023-02-14T03:12:33.317Z,12.57
2023-02-14T03:15:11.027Z,12.13
2023-02-14T03:17:43.684Z,12.10
2023-02-14T03:20:45.567Z,10.73
2023-02-14T03:23:22.495Z,11.38
2023-02-14T03:25:54.939Z,12.32
2023-02-14T03:28:47.223Z,11.23
2023-02-14T03:31:16.624Z,11.15
2023-02-14T03:34:03.715Z,11.23
2023-02-14T03:36:33.668Z,10.18
2023-02-14T03:39:10.850Z,10.40
2023-02-14T03:41:51.674Z,10.55
2023-02-14T03:44:22.248Z,9.40
2023-02-14T03:47:01.455Z,10.30
2023-02-14T03:49:35.003Z,9.75
2023-02-14T03:52:03.965Z,9.85
2023-02-14T03:54:32.961Z,10.82
2023-02-14T03:57:24.943Z,10.45
2023-02-14T03:59:53.324Z,10.82
2023-02-14T04:02:37.961Z,9.18
2023-02-14T04:05:11.963Z,9.02
2023-02-14T04:07:48.977Z,9.27
2023-02-14T04:10:16.858Z,9.43
2023-02-14T04:12:43.654Z,9.48
2023-02-14T04:15:10.737Z,10.20
2023-02-14T04:18:03.613Z,9.38
2023-02-14T04:20:30.508Z,9.23
2023-02-14T04:22:57.658Z,9.18
2023-02-14T04:25:24.551Z,9.25
2023-02-14T04:27:52.061Z,9.27
2023-02-14T04:30:20.826Z,8.85
2023-02-14T04:35:14.650Z,9.10
2023-02-14T04:37:42.873Z,9.02
2023-02-14T04:40:10.146Z,9.50
2023-02-14T04:42:36.862Z,9.77
2023-02-14T04:45:05.526Z,10.73
2023-02-14T04:47:32.443Z,10.20
2023-02-14T04:49:59.108Z,10.35
2023-02-14T04:52:27.422Z,9.95
2023-02-14T04:57:34.706Z,10.30
2023-02-14T05:00:01.459Z,10.13
2023-02-14T05:02:32.258Z,11.43
2023-02-14T05:04:59.621Z,10.70
2023-02-14T05:07:26.239Z,9.77
2023-02-14T05:09:52.766Z,10.60
2023-02-14T05:12:19.560Z,10.50
2023-02-14T05:17:27.613Z,10.05
2023-02-14T05:19:54.482Z,9.68
2023-02-14T05:22:21.404Z,10.02
2023-02-14T05:24:48.002Z,10.10
2023-02-14T05:27:14.662Z,10.98
2023-02-14T05:29:44.100Z,10.20
2023-02-14T05:32:11.618Z,10.80
2023-02-14T05:34:38.433Z,10.35
2023-02-14T05:37:05.089Z,10.38
2023-02-14T05:39:32.593Z,10.70
2023-02-14T05:41:59.585Z,9.95
2023-02-14T05:44:26.323Z,9.80
2023-02-14T05:46:53.157Z,9.77
2023-02-14T05:49:20.127Z,10.13
2023-02-14T05:51:47.110Z,9.60
2023-02-14T05:54:13.736Z,10.95
2023-02-14T05:56:40.479Z,10.48
2023-02-14T05:59:10.680Z,9.38
2023-02-14T06:01:37.421Z,9.95
2023-02-14T06:04:04.190Z,9.73
2023-02-14T06:06:31.584Z,10.05
2023-02-14T06:09:02.268Z,10.10
2023-02-14T06:11:29.583Z,9.95
2023-02-14T06:13:57.078Z,10.25
2023-02-14T06:16:23.834Z,9.63
2023-02-14T06:18:50.417Z,9.82
2023-02-14T06:21:17.257Z,8.93
2023-02-14T06:23:45.505Z,9.80
2023-02-14T06:26:13.785Z,10.70
2023-02-14T06:28:40.284Z,10.07
2023-02-14T06:31:07.023Z,9.25
2023-02-14T06:33:33.790Z,10.18
2023-02-14T06:36:00.431Z,9.93
2023-02-14T06:38:29.085Z,10.00
2023-02-14T06:40:55.570Z,10.70
2023-02-14T06:43:22.333Z,10.27
2023-02-14T06:45:48.809Z,10.27
2023-02-14T06:48:15.662Z,10.88
2023-02-14T06:50:43.151Z,9.90
2023-02-14T06:53:09.812Z,10.40
2023-02-14T06:55:36.503Z,11.27
2023-02-14T06:58:03.317Z,10.98
2023-02-14T07:00:30.094Z,10.27
2023-02-14T07:02:57.784Z,11.02
2023-02-14T07:05:24.575Z,10.68
2023-02-14T07:07:52.866Z,11.27
2023-02-14T07:10:19.973Z,10.45
2023-02-14T07:12:46.790Z,11.45
2023-02-14T07:15:13.582Z,12.13
2023-02-14T07:17:48.225Z,13.02
2023-02-14T07:20:15.775Z,15.70
2023-02-14T07:22:42.748Z,15.05
2023-02-14T07:25:13.158Z,16.00
2023-02-14T07:27:40.169Z,20.05
2023-02-14T07:30:08.585Z,14.68
2023-02-14T07:32:38.413Z,15.75
2023-02-14T07:35:05.657Z,14.98
2023-02-14T07:37:33.705Z,13.73
2023-02-14T07:40:00.267Z,14.48
2023-02-14T07:42:27.153Z,13.98
2023-02-14T07:44:53.792Z,14.30
2023-02-14T07:47:20.400Z,15.05
2023-02-14T07:49:46.955Z,14.65
2023-02-14T07:52:13.442Z,14.60
2023-02-14T07:54:41.309Z,16.83
2023-02-14T07:57:08.093Z,16.67
2023-02-14T07:59:36.213Z,16.35
2023-02-14T08:02:04.767Z,15.95
2023-02-14T08:04:33.752Z,17.08
2023-02-14T08:07:00.798Z,17.10
2023-02-14T08:09:27.545Z,16.80
2023-02-14T08:12:15.611Z,17.02
2023-02-14T08:14:43.486Z,15.45
2023-02-14T08:17:11.679Z,15.52
2023-02-14T08:19:38.425Z,14.88
2023-02-14T08:22:05.497Z,14.82
2023-02-14T08:24:32.496Z,14.40
2023-02-14T08:26:59.860Z,13.70
2023-02-14T08:29:26.486Z,13.52
2023-02-14T08:31:53.762Z,12.98
2023-02-14T08:34:22.240Z,14.43
2023-02-14T08:36:48.946Z,13.75
2023-02-14T08:39:15.538Z,13.18
2023-02-14T08:41:42.049Z,13.45
2023-02-14T08:44:08.890Z,13.68
2023-02-14T08:46:36.056Z,13.05
2023-02-14T08:49:02.835Z,13.75
2023-02-14T08:51:29.614Z,14.00
2023-02-14T08:53:56.485Z,13.70
2023-02-14T08:56:24.427Z,15.10
2023-02-14T08:58:55.267Z,13.98
2023-02-14T09:01:22.412Z,14.70
2023-02-14T09:03:49.137Z,15.32
2023-02-14T09:06:17.542Z,15.40
2023-02-14T09:08:44.998Z,15.07
2023-02-14T09:11:18.898Z,15.70
2023-02-14T09:13:47.441Z,15.00
2023-02-14T09:16:19.280Z,15.57
2023-02-14T09:18:47.418Z,16.10
2023-02-14T09:21:17.283Z,17.17
2023-02-14T09:23:44.405Z,16.65
2023-02-14T09:26:13.705Z,15.77
2023-02-14T09:28:42.040Z,17.33
2023-02-14T09:31:14.644Z,15.68
2023-02-14T09:33:46.282Z,17.20
2023-02-14T09:36:18.838Z,17.77
2023-02-14T09:38:47.694Z,17.05
2023-02-14T09:44:44.646Z,17.00
2023-02-14T09:47:35.634Z,17.52
2023-02-14T09:50:07.148Z,18.67
2023-02-14T09:52:37.829Z,18.17
2023-02-14T09:55:14.920Z,18.30
2023-02-14T09:57:56.935Z,18.27
2023-02-14T10:00:31.291Z,17.75
2023-02-14T10:03:29.273Z,17.02
2023-02-14T10:06:12.291Z,16.92
2023-02-14T10:08:44.215Z,16.92
2023-02-14T10:11:20.750Z,18.10
2023-02-14T10:13:54.559Z,17.55
2023-02-14T10:16:28.910Z,16.98
2023-02-14T10:19:05.235Z,18.10
2023-02-14T10:21:43.113Z,17.45
2023-02-14T10:24:21.668Z,17.23
2023-02-14T10:26:54.775Z,16.88
2023-02-14T10:29:22.667Z,16.58
2023-02-14T10:32:04.481Z,17.08
2023-02-14T10:34:46.024Z,17.45
2023-02-14T10:37:17.747Z,16.73
2023-02-14T10:40:00.573Z,17.85
2023-02-14T10:43:12.923Z,17.05
2023-02-14T10:45:52.894Z,16.95
2023-02-14T10:48:42.788Z,16.45
2023-02-14T10:51:25.766Z,15.75
2023-02-14T10:54:13.703Z,16.17
2023-02-14T10:57:19.255Z,16.55
2023-02-14T11:00:14.281Z,15.05
2023-02-14T11:02:49.932Z,15.52
2023-02-14T11:05:41.090Z,15.23
2023-02-14T11:08:20.125Z,15.77
2023-02-14T11:10:50.630Z,15.07
2023-02-14T11:13:36.078Z,16.63
2023-02-14T11:20:12.997Z,15.85
2023-02-14T11:22:39.834Z,14.63
2023-02-14T11:25:30.689Z,16.38
2023-02-14T11:28:12.480Z,15.90
2023-02-14T11:30:47.805Z,15.43
2023-02-14T11:33:33.493Z,14.93
2023-02-14T11:36:03.244Z,14.98
2023-02-14T11:38:36.186Z,16.58
2023-02-14T11:41:04.959Z,15.18
2023-02-14T11:43:45.860Z,15.65
2023-02-14T11:46:36.144Z,15.57
2023-02-14T11:49:09.464Z,14.50
2023-02-14T11:51:42.174Z,15.60
2023-02-14T11:54:27.719Z,15.60
2023-02-14T11:57:06.023Z,15.40
2023-02-14T11:59:43.626Z,15.70
2023-02-14T12:02:29.439Z,15.15
2023-02-14T12:07:45.822Z,15.73
2023-02-14T12:10:19.051Z,15.40
2023-02-14T12:12:48.586Z,14.63
2023-02-14T12:15:25.230Z,14.13
2023-02-14T12:17:58.884Z,14.77
2023-02-14T12:20:49.379Z,14.90
2023-02-14T12:23:26.413Z,14.32
2023-02-14T12:25:59.113Z,14.07
2023-02-14T12:28:38.661Z,15.52
2023-02-14T12:31:13.580Z,15.50
2023-02-14T12:33:41.202Z,14.40
2023-02-14T12:36:30.931Z,14.98
2023-02-14T12:39:16.603Z,15.13
2023-02-14T12:42:00.340Z,15.18
2023-02-14T12:44:59.586Z,15.60
2023-02-14T12:47:54.983Z,14.70
2023-02-14T12:50:37.992Z,14.85
2023-02-14T12:53:25.984Z,14.55
2023-02-14T12:56:11.501Z,14.60
2023-02-14T12:58:51.014Z,14.75
2023-02-14T13:01:39.221Z,14.75
2023-02-14T13:04:34.184Z,15.57
2023-02-14T13:07:13.807Z,14.95
2023-02-14T13:09:54.634Z,15.23
2023-02-14T13:12:44.488Z,14.18
2023-02-14T13:15:27.587Z,15.13
2023-02-14T13:18:12.522Z,14.40
2023-02-14T13:20:58.350Z,14.77
2023-02-14T13:23:36.143Z,14.55
2023-02-14T13:26:29.617Z,14.52
2023-02-14T13:29:02.310Z,14.43
2023-02-14T13:46:02.821Z,14.32
2023-02-14T13:48:30.845Z,14.48
2023-02-14T13:50:59.986Z,13.93
2023-02-14T13:53:34.712Z,13.70
2023-02-14T13:59:06.055Z,13.40
2023-02-14T14:01:51.610Z,13.07
2023-02-14T14:04:31.935Z,14.10
2023-02-14T14:07:04.652Z,14.85
2023-02-14T14:09:43.873Z,14.23
2023-02-14T14:12:28.824Z,13.70
2023-02-14T14:15:08.235Z,13.95
2023-02-14T14:17:39.406Z,13.73
2023-02-14T14:20:21.725Z,13.65
2023-02-14T14:22:50.678Z,13.18
2023-02-14T14:25:37.930Z,13.75
2023-02-14T14:28:12.096Z,13.25
2023-02-14T14:30:44.666Z,14.13
2023-02-14T14:33:31.975Z,13.75
2023-02-14T14:36:21.683Z,14.50
2023-02-14T14:38:51.241Z,15.13
2023-02-14T14:41:19.248Z,16.00
2023-02-14T14:43:47.844Z,15.63
2023-02-14T14:46:16.085Z,14.48
2023-02-14T14:48:51.590Z,13.85
2023-02-14T14:51:31.495Z,14.07
2023-02-14T14:54:03.514Z,13.65
2023-02-14T14:56:35.670Z,14.13
2023-02-14T14:59:35.766Z,14.10
2023-02-14T15:02:04.215Z,13.85
2023-02-14T15:07:27.864Z,13.75
2023-02-14T15:09:54.665Z,14.57
2023-02-14T15:12:43.334Z,14.00
2023-02-14T15:15:16.930Z,14.80
2023-02-14T15:17:45.996Z,15.18
2023-02-14T15:20:24.204Z,15.00
2023-02-14T15:22:55.204Z,14.32
2023-02-14T15:25:22.526Z,13.20
2023-02-14T15:27:49.743Z,12.98
2023-02-14T15:30:21.930Z,14.50
2023-02-14T15:32:50.642Z,14.70
2023-02-14T15:35:24.255Z,14.02
2023-02-14T15:37:52.151Z,15.65
2023-02-14T15:40:24.625Z,14.85
2023-02-14T15:42:59.121Z,15.40
2023-02-14T15:47:55.850Z,14.48
2023-02-14T15:50:27.924Z,14.40
2023-02-14T15:53:00.352Z,14.05
2023-02-14T15:55:28.055Z,14.57
2023-02-14T15:58:02.995Z,14.07
2023-02-14T16:00:31.802Z,14.52
2023-02-14T16:03:23.898Z,14.68
2023-02-14T16:05:51.444Z,15.05
2023-02-14T16:08:37.781Z,13.90
2023-02-14T16:11:14.668Z,14.18
2023-02-14T16:13:47.799Z,14.63
2023-02-14T16:16:15.707Z,14.48
2023-02-14T16:18:43.804Z,14.80
2023-02-14T16:21:16.407Z,15.02
2023-02-14T16:23:45.940Z,14.77
2023-02-14T16:26:13.296Z,15.05
2023-02-14T16:28:43.034Z,14.65
2023-02-14T16:31:15.532Z,14.30
2023-02-14T16:33:44.917Z,14.88
2023-02-14T16:36:26.453Z,15.10
2023-02-14T16:38:53.580Z,15.13
2023-02-14T16:41:26.438Z,15.85
2023-02-14T16:43:55.505Z,15.13
2023-02-14T16:46:26.226Z,14.85
2023-02-14T16:48:53.176Z,16.08
2023-02-14T16:51:22.571Z,15.88
2023-02-14T16:53:50.515Z,17.48
2023-02-14T16:56:26.091Z,16.15
2023-02-14T16:58:52.741Z,16.90
2023-02-14T17:01:19.438Z,17.77
2023-02-14T17:03:46.292Z,17.73
2023-02-14T17:06:17.097Z,18.63
2023-02-14T17:08:44.021Z,17.17
2023-02-14T17:11:11.367Z,18.75
2023-02-14T17:13:41.291Z,17.77
2023-02-14T17:16:11.948Z,18.25
2023-02-14T17:18:41.646Z,16.85
2023-02-14T17:21:11.997Z,17.65
2023-02-14T17:23:38.651Z,17.85
2023-02-14T17:26:06.155Z,18.00
2023-02-14T17:28:33.353Z,19.08
2023-02-14T17:31:01.151Z,18.35
2023-02-14T17:33:30.467Z,17.85
2023-02-14T17:36:06.814Z,17.30
2023-02-14T17:38:35.922Z,15.98
2023-02-14T17:41:22.780Z,16.48
2023-02-14T17:43:51.342Z,17.33
2023-02-14T17:48:49.206Z,17.88
2023-02-14T17:51:18.119Z,17.95
2023-02-14T17:53:44.828Z,18.27
2023-02-14T17:56:14.733Z,18.55
2023-02-14T17:58:41.714Z,18.08
2023-02-14T18:01:10.896Z,18.33
2023-02-14T18:03:39.108Z,18.73
2023-02-14T18:06:06.934Z,20.55
2023-02-14T18:08:39.207Z,21.05
2023-02-14T18:11:08.196Z,20.17
2023-02-14T18:13:35.400Z,20.40
2023-02-14T18:16:04.719Z,19.23
2023-02-14T18:18:32.779Z,18.58
2023-02-14T18:21:03.302Z,18.85
2023-02-14T18:23:32.926Z,19.50
2023-02-14T18:26:04.656Z,18.10
2023-02-14T18:28:32.771Z,17.70
2023-02-14T18:31:09.357Z,18.02
2023-02-14T18:33:37.683Z,18.45
2023-02-14T18:36:09.094Z,19.05
2023-02-14T18:38:36.268Z,18.92
2023-02-14T18:41:05.635Z,18.33
2023-02-14T18:43:32.659Z,17.88
2023-02-14T18:46:07.916Z,20.08
2023-02-14T18:48:37.364Z,18.80
2023-02-14T18:51:14.326Z,20.30
2023-02-14T18:53:44.390Z,19.33
2023-02-14T18:56:15.766Z,18.27
2023-02-14T18:58:49.059Z,20.30
2023-02-14T19:01:18.048Z,19.50
2023-02-14T19:03:45.730Z,19.67
2023-02-14T19:06:13.507Z,16.33
2023-02-14T19:08:41.839Z,18.23
2023-02-14T19:11:20.291Z,17.88
2023-02-14T19:13:58.710Z,16.27
2023-02-14T19:16:28.578Z,16.50
2023-02-14T19:18:55.963Z,16.55
2023-02-14T19:21:25.901Z,16.30
2023-02-14T19:23:57.269Z,16.70
2023-02-14T19:26:31.782Z,17.33
2023-02-14T19:29:04.854Z,17.02
2023-02-14T19:31:36.378Z,16.50
2023-02-14T19:34:05.177Z,17.00
2023-02-14T19:36:33.341Z,16.88
2023-02-14T19:39:00.181Z,17.42
2023-02-14T19:41:32.248Z,17.25
2023-02-14T19:43:59.909Z,18.77
2023-02-14T19:46:28.410Z,18.50
2023-02-14T19:49:06.289Z,19.55
2023-02-14T19:51:36.329Z,18.95
2023-02-14T19:54:12.838Z,18.58
2023-02-14T19:56:46.525Z,19.17
2023-02-14T20:02:04.516Z,18.98
2023-02-14T20:04:32.234Z,18.20
2023-02-14T20:06:59.280Z,20.30
2023-02-14T20:09:26.950Z,19.95
2023-02-14T20:11:56.357Z,23.20
2023-02-14T20:14:38.421Z,21.98
2023-02-14T20:17:15.149Z,22.42
2023-02-14T20:19:42.626Z,21.75
2023-02-14T20:22:09.401Z,22.92
2023-02-14T20:24:36.270Z,23.15
2023-02-14T20:27:03.918Z,24.20
2023-02-14T20:29:31.330Z,25.20
2023-02-14T20:32:00.262Z,24.10
2023-02-14T20:34:29.384Z,26.35
2023-02-14T20:36:57.222Z,25.52
2023-02-14T20:39:29.888Z,27.77
2023-02-14T20:41:56.875Z,28.45
2023-02-14T20:44:25.664Z,30.25
2023-02-14T20:49:23.685Z,28.08
2023-02-14T20:51:51.398Z,28.77
2023-02-14T20:54:24.373Z,27.40
2023-02-14T20:56:51.651Z,28.77
2023-02-14T20:59:29.224Z,30.83
2023-02-14T21:01:59.940Z,31.52
2023-02-14T21:04:27.469Z,30.90
2023-02-14T21:06:54.764Z,28.80
2023-02-14T21:09:22.142Z,28.52
2023-02-14T21:11:50.536Z,30.63
2023-02-14T21:14:18.302Z,31.38
2023-02-14T21:16:48.530Z,26.90
2023-02-14T21:19:15.439Z,28.73
2023-02-14T21:21:42.912Z,26.35
2023-02-14T21:24:16.093Z,25.42
2023-02-14T21:26:44.809Z,25.23
2023-02-14T21:29:11.574Z,25.13
2023-02-14T21:31:38.732Z,23.58
2023-02-14T21:34:06.026Z,24.10
2023-02-14T21:36:38.691Z,22.48
2023-02-14T21:39:10.917Z,21.65
2023-02-14T21:41:37.992Z,18.27
2023-02-14T21:44:05.933Z,19.05
2023-02-14T21:46:37.200Z,18.67
2023-02-14T21:49:23.955Z,19.63
2023-02-14T21:51:50.858Z,18.85
2023-02-14T21:54:18.076Z,17.52
2023-02-14T21:56:45.303Z,17.80
2023-02-14T22:01:53.525Z,18.65
2023-02-14T22:04:20.279Z,18.33
2023-02-14T22:06:47.279Z,17.85
2023-02-14T22:09:15.095Z,16.70
2023-02-14T22:11:41.908Z,16.13
2023-02-14T22:14:09.076Z,18.38
2023-02-14T22:16:38.892Z,17.13
2023-02-14T22:19:07.075Z,15.93
2023-02-14T22:21:34.522Z,15.00
2023-02-14T22:24:02.401Z,15.82
2023-02-14T22:26:31.629Z,15.43
2023-02-14T22:29:00.379Z,14.10
2023-02-14T22:31:30.264Z,14.75
2023-02-14T22:33:57.209Z,14.15
2023-02-14T22:36:24.502Z,13.88
2023-02-14T22:38:51.526Z,13.13
2023-02-14T22:41:22.082Z,13.18
2023-02-14T22:43:49.556Z,11.68
2023-02-14T22:46:20.255Z,12.85
2023-02-14T22:48:48.898Z,12.98
2023-02-14T22:51:24.076Z,14.38
2023-02-14T22:53:53.206Z,13.75
2023-02-14T22:56:29.356Z,13.48
2023-02-14T22:58:58.204Z,12.80
2023-02-14T23:03:57.578Z,13.65
2023-02-14T23:06:26.070Z,14.07
2023-02-14T23:08:55.617Z,14.98
2023-02-14T23:11:25.673Z,15.02
2023-02-14T23:14:12.691Z,14.43
2023-02-14T23:16:58.644Z,14.55
2023-02-14T23:19:49.676Z,14.23
2023-02-14T23:22:22.325Z,14.52
2023-02-14T23:24:51.348Z,15.07
2023-02-14T23:27:21.919Z,15.55
2023-02-14T23:29:49.554Z,16.08
2023-02-14T23:32:17.156Z,17.20
2023-02-14T23:34:45.818Z,18.17
2023-02-14T23:37:14.265Z,17.42
2023-02-14T23:39:41.719Z,16.58
2023-02-14T23:42:13.941Z,17.38
2023-02-14T23:44:42.261Z,17.55
2023-02-14T23:47:11.132Z,18.23
2023-02-14T23:49:39.745Z,18.25
2023-02-14T23:52:15.541Z,18.23
2023-02-14T23:54:42.475Z,18.00
2023-02-14T23:57:09.546Z,16.98
2023-02-14T23:59:36.492Z,18.58
